sensor_id;sensor_type;location;lat;lon;timestamp;P1;durP1;ratioP1;P2;durP2;ratioP2
6642;SDS011;3357;48.050;7.800;2024-02-21T00:00:38;8.00;;;2.10;;
6642;SDS011;3357;48.050;7.800;2024-02-21T00:03:04;8.40;;;2.03;;
6642;SDS011;3357;48.050;7.800;2024-02-21T00:05:29;4.03;;;2.13;;
6642;SDS011;3357;48.050;7.800;2024-02-21T00:07:55;5.50;;;2.10;;
6642;SDS011;3357;48.050;7.800;2024-02-21T00:10:20;3.67;;;1.70;;
6642;SDS011;3357;48.050;7.800;2024-02-21T00:12:45;4.00;;;2.00;;
6642;SDS011;3357;48.050;7.800;2024-02-21T00:15:11;3.70;;;2.30;;
6642;SDS011;3357;48.050;7.800;2024-02-21T00:17:37;9.10;;;2.13;;
6642;SDS011;3357;48.050;7.800;2024-02-21T00:20:02;4.30;;;2.13;;
6642;SDS011;3357;48.050;7.800;2024-02-21T00:22:27;5.70;;;1.90;;
6642;SDS011;3357;48.050;7.800;2024-02-21T00:24:58;3.60;;;1.80;;
6642;SDS011;3357;48.050;7.800;2024-02-21T00:27:24;5.23;;;2.13;;
6642;SDS011;3357;48.050;7.800;2024-02-21T00:29:49;4.30;;;1.97;;
6642;SDS011;3357;48.050;7.800;2024-02-21T00:32:15;3.93;;;2.40;;
6642;SDS011;3357;48.050;7.800;2024-02-21T00:34:40;8.73;;;2.27;;
6642;SDS011;3357;48.050;7.800;2024-02-21T00:37:05;6.90;;;2.50;;
6642;SDS011;3357;48.050;7.800;2024-02-21T00:39:31;11.60;;;2.20;;
6642;SDS011;3357;48.050;7.800;2024-02-21T00:41:56;7.27;;;2.67;;
6642;SDS011;3357;48.050;7.800;2024-02-21T00:44:21;9.07;;;2.17;;
6642;SDS011;3357;48.050;7.800;2024-02-21T00:46:47;10.93;;;2.67;;
6642;SDS011;3357;48.050;7.800;2024-02-21T00:49:12;7.63;;;2.43;;
6642;SDS011;3357;48.050;7.800;2024-02-21T00:51:37;6.73;;;2.20;;
6642;SDS011;3357;48.050;7.800;2024-02-21T00:54:02;3.90;;;2.10;;
6642;SDS011;3357;48.050;7.800;2024-02-21T00:56:28;4.60;;;2.10;;
6642;SDS011;3357;48.050;7.800;2024-02-21T00:58:54;3.97;;;2.33;;
6642;SDS011;3357;48.050;7.800;2024-02-21T01:01:23;5.37;;;2.00;;
6642;SDS011;3357;48.050;7.800;2024-02-21T01:03:50;10.47;;;2.63;;
6642;SDS011;3357;48.050;7.800;2024-02-21T01:06:18;14.50;;;3.47;;
6642;SDS011;3357;48.050;7.800;2024-02-21T01:08:44;4.77;;;2.00;;
6642;SDS011;3357;48.050;7.800;2024-02-21T01:11:09;8.40;;;2.37;;
6642;SDS011;3357;48.050;7.800;2024-02-21T01:13:34;4.83;;;2.20;;
6642;SDS011;3357;48.050;7.800;2024-02-21T01:15:59;4.00;;;1.83;;
6642;SDS011;3357;48.050;7.800;2024-02-21T01:18:25;6.83;;;1.70;;
6642;SDS011;3357;48.050;7.800;2024-02-21T01:20:50;9.07;;;1.90;;
6642;SDS011;3357;48.050;7.800;2024-02-21T01:23:17;5.50;;;1.93;;
6642;SDS011;3357;48.050;7.800;2024-02-21T01:25:42;2.87;;;1.70;;
6642;SDS011;3357;48.050;7.800;2024-02-21T01:28:07;6.67;;;1.83;;
6642;SDS011;3357;48.050;7.800;2024-02-21T01:30:33;9.33;;;2.33;;
6642;SDS011;3357;48.050;7.800;2024-02-21T01:32:58;8.87;;;2.10;;
6642;SDS011;3357;48.050;7.800;2024-02-21T01:35:23;9.37;;;2.00;;
6642;SDS011;3357;48.050;7.800;2024-02-21T01:37:48;5.87;;;2.17;;
6642;SDS011;3357;48.050;7.800;2024-02-21T01:40:14;2.50;;;1.53;;
6642;SDS011;3357;48.050;7.800;2024-02-21T01:42:39;3.83;;;2.10;;
6642;SDS011;3357;48.050;7.800;2024-02-21T01:45:08;11.90;;;2.30;;
6642;SDS011;3357;48.050;7.800;2024-02-21T01:47:33;3.73;;;1.53;;
6642;SDS011;3357;48.050;7.800;2024-02-21T01:49:59;4.17;;;1.80;;
6642;SDS011;3357;48.050;7.800;2024-02-21T01:52:26;6.03;;;2.10;;
6642;SDS011;3357;48.050;7.800;2024-02-21T01:54:52;6.43;;;2.40;;
6642;SDS011;3357;48.050;7.800;2024-02-21T01:57:17;10.33;;;2.00;;
6642;SDS011;3357;48.050;7.800;2024-02-21T01:59:43;10.37;;;2.17;;
6642;SDS011;3357;48.050;7.800;2024-02-21T02:02:08;5.10;;;2.37;;
6642;SDS011;3357;48.050;7.800;2024-02-21T02:04:33;2.23;;;1.57;;
6642;SDS011;3357;48.050;7.800;2024-02-21T02:06:59;7.77;;;1.77;;
6642;SDS011;3357;48.050;7.800;2024-02-21T02:09:27;4.43;;;1.70;;
6642;SDS011;3357;48.050;7.800;2024-02-21T02:11:52;5.53;;;1.80;;
6642;SDS011;3357;48.050;7.800;2024-02-21T02:14:18;4.20;;;2.07;;
6642;SDS011;3357;48.050;7.800;2024-02-21T02:16:45;6.27;;;2.10;;
6642;SDS011;3357;48.050;7.800;2024-02-21T02:19:11;4.23;;;2.00;;
6642;SDS011;3357;48.050;7.800;2024-02-21T02:21:39;5.23;;;1.90;;
6642;SDS011;3357;48.050;7.800;2024-02-21T02:24:05;9.20;;;3.70;;
6642;SDS011;3357;48.050;7.800;2024-02-21T02:26:30;4.77;;;2.27;;
6642;SDS011;3357;48.050;7.800;2024-02-21T02:28:56;6.43;;;2.10;;
6642;SDS011;3357;48.050;7.800;2024-02-21T02:31:21;5.27;;;2.73;;
6642;SDS011;3357;48.050;7.800;2024-02-21T02:33:46;3.03;;;1.80;;
6642;SDS011;3357;48.050;7.800;2024-02-21T02:36:13;7.57;;;2.30;;
6642;SDS011;3357;48.050;7.800;2024-02-21T02:38:38;9.60;;;3.03;;
6642;SDS011;3357;48.050;7.800;2024-02-21T02:41:03;3.77;;;2.23;;
6642;SDS011;3357;48.050;7.800;2024-02-21T02:43:29;5.43;;;2.30;;
6642;SDS011;3357;48.050;7.800;2024-02-21T02:45:54;4.53;;;2.47;;
6642;SDS011;3357;48.050;7.800;2024-02-21T02:48:20;5.87;;;2.40;;
6642;SDS011;3357;48.050;7.800;2024-02-21T02:50:46;7.63;;;2.20;;
6642;SDS011;3357;48.050;7.800;2024-02-21T02:53:11;6.70;;;2.13;;
6642;SDS011;3357;48.050;7.800;2024-02-21T02:55:36;3.50;;;2.07;;
6642;SDS011;3357;48.050;7.800;2024-02-21T02:58:02;5.63;;;1.77;;
6642;SDS011;3357;48.050;7.800;2024-02-21T03:00:27;6.17;;;2.50;;
6642;SDS011;3357;48.050;7.800;2024-02-21T03:02:53;11.73;;;2.60;;
6642;SDS011;3357;48.050;7.800;2024-02-21T03:05:19;5.83;;;2.43;;
6642;SDS011;3357;48.050;7.800;2024-02-21T03:07:45;9.80;;;2.20;;
6642;SDS011;3357;48.050;7.800;2024-02-21T03:10:11;11.13;;;2.40;;
6642;SDS011;3357;48.050;7.800;2024-02-21T03:12:37;7.50;;;2.80;;
6642;SDS011;3357;48.050;7.800;2024-02-21T03:15:02;9.57;;;3.00;;
6642;SDS011;3357;48.050;7.800;2024-02-21T03:17:29;3.83;;;1.97;;
6642;SDS011;3357;48.050;7.800;2024-02-21T03:19:55;2.30;;;1.60;;
6642;SDS011;3357;48.050;7.800;2024-02-21T03:22:23;3.13;;;1.80;;
6642;SDS011;3357;48.050;7.800;2024-02-21T03:24:49;2.50;;;1.93;;
6642;SDS011;3357;48.050;7.800;2024-02-21T03:27:14;4.50;;;1.87;;
6642;SDS011;3357;48.050;7.800;2024-02-21T03:29:39;4.93;;;2.23;;
6642;SDS011;3357;48.050;7.800;2024-02-21T03:32:04;4.20;;;2.00;;
6642;SDS011;3357;48.050;7.800;2024-02-21T03:34:30;7.40;;;2.23;;
6642;SDS011;3357;48.050;7.800;2024-02-21T03:36:55;6.50;;;2.17;;
6642;SDS011;3357;48.050;7.800;2024-02-21T03:39:20;3.13;;;2.20;;
6642;SDS011;3357;48.050;7.800;2024-02-21T03:41:46;4.27;;;1.73;;
6642;SDS011;3357;48.050;7.800;2024-02-21T03:44:12;3.30;;;1.83;;
6642;SDS011;3357;48.050;7.800;2024-02-21T03:46:37;6.30;;;2.37;;
6642;SDS011;3357;48.050;7.800;2024-02-21T03:49:02;5.50;;;1.63;;
6642;SDS011;3357;48.050;7.800;2024-02-21T03:51:27;4.60;;;2.13;;
6642;SDS011;3357;48.050;7.800;2024-02-21T03:53:52;10.03;;;1.80;;
6642;SDS011;3357;48.050;7.800;2024-02-21T03:56:18;2.77;;;1.80;;
6642;SDS011;3357;48.050;7.800;2024-02-21T03:58:43;4.63;;;2.03;;
6642;SDS011;3357;48.050;7.800;2024-02-21T04:01:08;2.63;;;1.93;;
6642;SDS011;3357;48.050;7.800;2024-02-21T04:03:33;4.20;;;1.70;;
6642;SDS011;3357;48.050;7.800;2024-02-21T04:05:59;6.87;;;1.90;;
6642;SDS011;3357;48.050;7.800;2024-02-21T04:08:25;2.40;;;1.67;;
6642;SDS011;3357;48.050;7.800;2024-02-21T04:10:50;3.87;;;1.70;;
6642;SDS011;3357;48.050;7.800;2024-02-21T04:13:15;6.10;;;2.37;;
6642;SDS011;3357;48.050;7.800;2024-02-21T04:15:41;4.60;;;1.70;;
6642;SDS011;3357;48.050;7.800;2024-02-21T04:18:06;3.73;;;1.80;;
6642;SDS011;3357;48.050;7.800;2024-02-21T04:20:31;1.80;;;1.70;;
6642;SDS011;3357;48.050;7.800;2024-02-21T04:22:57;3.00;;;1.60;;
6642;SDS011;3357;48.050;7.800;2024-02-21T04:25:22;9.03;;;2.00;;
6642;SDS011;3357;48.050;7.800;2024-02-21T04:27:48;4.20;;;1.63;;
6642;SDS011;3357;48.050;7.800;2024-02-21T04:30:13;8.53;;;1.83;;
6642;SDS011;3357;48.050;7.800;2024-02-21T04:32:39;3.43;;;1.53;;
6642;SDS011;3357;48.050;7.800;2024-02-21T04:35:04;1.73;;;1.57;;
6642;SDS011;3357;48.050;7.800;2024-02-21T04:37:30;1.90;;;1.80;;
6642;SDS011;3357;48.050;7.800;2024-02-21T04:39:56;6.57;;;1.70;;
6642;SDS011;3357;48.050;7.800;2024-02-21T04:42:21;2.50;;;1.67;;
6642;SDS011;3357;48.050;7.800;2024-02-21T04:44:46;3.33;;;1.70;;
6642;SDS011;3357;48.050;7.800;2024-02-21T04:47:11;7.17;;;2.03;;
6642;SDS011;3357;48.050;7.800;2024-02-21T04:49:37;6.20;;;1.97;;
6642;SDS011;3357;48.050;7.800;2024-02-21T04:52:03;3.93;;;1.97;;
6642;SDS011;3357;48.050;7.800;2024-02-21T04:54:29;5.90;;;1.83;;
6642;SDS011;3357;48.050;7.800;2024-02-21T04:56:54;6.73;;;1.53;;
6642;SDS011;3357;48.050;7.800;2024-02-21T04:59:19;5.70;;;2.43;;
6642;SDS011;3357;48.050;7.800;2024-02-21T05:01:44;7.40;;;1.97;;
6642;SDS011;3357;48.050;7.800;2024-02-21T05:04:10;5.10;;;2.23;;
6642;SDS011;3357;48.050;7.800;2024-02-21T05:06:39;4.80;;;2.10;;
6642;SDS011;3357;48.050;7.800;2024-02-21T05:09:05;3.60;;;1.70;;
6642;SDS011;3357;48.050;7.800;2024-02-21T05:11:31;5.00;;;1.30;;
6642;SDS011;3357;48.050;7.800;2024-02-21T05:13:56;2.00;;;1.70;;
6642;SDS011;3357;48.050;7.800;2024-02-21T05:16:21;5.53;;;1.70;;
6642;SDS011;3357;48.050;7.800;2024-02-21T05:18:47;5.47;;;1.90;;
6642;SDS011;3357;48.050;7.800;2024-02-21T05:21:12;7.20;;;1.80;;
6642;SDS011;3357;48.050;7.800;2024-02-21T05:23:38;6.83;;;2.30;;
6642;SDS011;3357;48.050;7.800;2024-02-21T05:26:04;5.47;;;2.43;;
6642;SDS011;3357;48.050;7.800;2024-02-21T05:28:29;7.17;;;2.07;;
6642;SDS011;3357;48.050;7.800;2024-02-21T05:30:55;5.03;;;2.30;;
6642;SDS011;3357;48.050;7.800;2024-02-21T05:33:20;2.33;;;2.13;;
6642;SDS011;3357;48.050;7.800;2024-02-21T05:35:48;8.20;;;2.10;;
6642;SDS011;3357;48.050;7.800;2024-02-21T05:38:14;3.13;;;1.93;;
6642;SDS011;3357;48.050;7.800;2024-02-21T05:40:40;7.27;;;2.63;;
6642;SDS011;3357;48.050;7.800;2024-02-21T05:43:06;5.47;;;2.00;;
6642;SDS011;3357;48.050;7.800;2024-02-21T05:45:32;6.63;;;2.23;;
6642;SDS011;3357;48.050;7.800;2024-02-21T05:47:57;3.83;;;2.60;;
6642;SDS011;3357;48.050;7.800;2024-02-21T05:50:23;4.90;;;2.00;;
6642;SDS011;3357;48.050;7.800;2024-02-21T05:52:48;3.67;;;1.70;;
6642;SDS011;3357;48.050;7.800;2024-02-21T05:55:16;6.53;;;2.03;;
6642;SDS011;3357;48.050;7.800;2024-02-21T05:57:41;3.30;;;1.53;;
6642;SDS011;3357;48.050;7.800;2024-02-21T06:00:07;9.00;;;2.20;;
6642;SDS011;3357;48.050;7.800;2024-02-21T06:02:32;4.83;;;2.20;;
6642;SDS011;3357;48.050;7.800;2024-02-21T06:04:58;2.80;;;2.40;;
6642;SDS011;3357;48.050;7.800;2024-02-21T06:07:23;10.57;;;1.80;;
6642;SDS011;3357;48.050;7.800;2024-02-21T06:09:48;4.53;;;2.30;;
6642;SDS011;3357;48.050;7.800;2024-02-21T06:12:14;5.47;;;3.17;;
6642;SDS011;3357;48.050;7.800;2024-02-21T06:14:39;9.33;;;3.70;;
6642;SDS011;3357;48.050;7.800;2024-02-21T06:17:04;5.33;;;2.70;;
6642;SDS011;3357;48.050;7.800;2024-02-21T06:19:29;6.27;;;3.37;;
6642;SDS011;3357;48.050;7.800;2024-02-21T06:21:55;8.50;;;3.37;;
6642;SDS011;3357;48.050;7.800;2024-02-21T06:24:20;11.33;;;3.87;;
6642;SDS011;3357;48.050;7.800;2024-02-21T06:26:45;8.30;;;3.73;;
6642;SDS011;3357;48.050;7.800;2024-02-21T06:29:11;10.53;;;3.40;;
6642;SDS011;3357;48.050;7.800;2024-02-21T06:31:36;19.70;;;4.00;;
6642;SDS011;3357;48.050;7.800;2024-02-21T06:34:01;7.93;;;3.70;;
6642;SDS011;3357;48.050;7.800;2024-02-21T06:36:27;12.57;;;4.53;;
6642;SDS011;3357;48.050;7.800;2024-02-21T06:38:52;8.17;;;3.73;;
6642;SDS011;3357;48.050;7.800;2024-02-21T06:41:17;8.90;;;3.83;;
6642;SDS011;3357;48.050;7.800;2024-02-21T06:43:46;7.07;;;3.23;;
6642;SDS011;3357;48.050;7.800;2024-02-21T06:46:12;10.73;;;3.67;;
6642;SDS011;3357;48.050;7.800;2024-02-21T06:48:58;9.17;;;4.10;;
6642;SDS011;3357;48.050;7.800;2024-02-21T06:51:23;11.53;;;3.63;;
6642;SDS011;3357;48.050;7.800;2024-02-21T06:53:49;6.53;;;3.50;;
6642;SDS011;3357;48.050;7.800;2024-02-21T06:56:15;9.87;;;4.07;;
6642;SDS011;3357;48.050;7.800;2024-02-21T06:58:40;12.13;;;3.60;;
6642;SDS011;3357;48.050;7.800;2024-02-21T07:01:06;10.10;;;4.20;;
6642;SDS011;3357;48.050;7.800;2024-02-21T07:03:31;6.60;;;3.20;;
6642;SDS011;3357;48.050;7.800;2024-02-21T07:05:57;7.17;;;3.10;;
6642;SDS011;3357;48.050;7.800;2024-02-21T07:08:22;9.70;;;3.33;;
6642;SDS011;3357;48.050;7.800;2024-02-21T07:10:47;8.63;;;3.57;;
6642;SDS011;3357;48.050;7.800;2024-02-21T07:13:12;5.60;;;2.90;;
6642;SDS011;3357;48.050;7.800;2024-02-21T07:15:40;6.10;;;2.50;;
6642;SDS011;3357;48.050;7.800;2024-02-21T07:18:06;5.03;;;3.03;;
6642;SDS011;3357;48.050;7.800;2024-02-21T07:20:31;6.70;;;3.63;;
6642;SDS011;3357;48.050;7.800;2024-02-21T07:22:58;7.23;;;3.07;;
6642;SDS011;3357;48.050;7.800;2024-02-21T07:25:23;8.10;;;3.80;;
6642;SDS011;3357;48.050;7.800;2024-02-21T07:27:49;10.30;;;4.53;;
6642;SDS011;3357;48.050;7.800;2024-02-21T07:30:14;12.20;;;4.80;;
6642;SDS011;3357;48.050;7.800;2024-02-21T07:32:39;15.27;;;5.10;;
6642;SDS011;3357;48.050;7.800;2024-02-21T07:35:05;23.60;;;4.80;;
6642;SDS011;3357;48.050;7.800;2024-02-21T07:37:30;7.60;;;3.00;;
6642;SDS011;3357;48.050;7.800;2024-02-21T07:39:56;11.23;;;3.50;;
6642;SDS011;3357;48.050;7.800;2024-02-21T07:42:21;6.83;;;4.00;;
6642;SDS011;3357;48.050;7.800;2024-02-21T07:44:46;11.50;;;4.77;;
6642;SDS011;3357;48.050;7.800;2024-02-21T07:47:11;5.07;;;3.00;;
6642;SDS011;3357;48.050;7.800;2024-02-21T07:49:43;8.07;;;3.97;;
6642;SDS011;3357;48.050;7.800;2024-02-21T07:52:09;5.83;;;3.33;;
6642;SDS011;3357;48.050;7.800;2024-02-21T07:54:35;19.37;;;4.20;;
6642;SDS011;3357;48.050;7.800;2024-02-21T07:57:00;6.67;;;3.80;;
6642;SDS011;3357;48.050;7.800;2024-02-21T07:59:25;5.93;;;4.30;;
6642;SDS011;3357;48.050;7.800;2024-02-21T08:01:50;12.00;;;4.90;;
6642;SDS011;3357;48.050;7.800;2024-02-21T08:04:16;7.47;;;5.70;;
6642;SDS011;3357;48.050;7.800;2024-02-21T08:06:41;10.17;;;6.83;;
6642;SDS011;3357;48.050;7.800;2024-02-21T08:09:06;10.20;;;4.33;;
6642;SDS011;3357;48.050;7.800;2024-02-21T08:11:31;3.97;;;2.73;;
6642;SDS011;3357;48.050;7.800;2024-02-21T08:13:57;5.47;;;3.20;;
6642;SDS011;3357;48.050;7.800;2024-02-21T08:16:23;3.80;;;2.70;;
6642;SDS011;3357;48.050;7.800;2024-02-21T08:18:48;7.13;;;3.23;;
6642;SDS011;3357;48.050;7.800;2024-02-21T08:21:13;7.83;;;2.87;;
6642;SDS011;3357;48.050;7.800;2024-02-21T08:23:38;4.70;;;2.60;;
6642;SDS011;3357;48.050;7.800;2024-02-21T08:26:04;2.83;;;2.43;;
6642;SDS011;3357;48.050;7.800;2024-02-21T08:28:29;5.40;;;2.83;;
6642;SDS011;3357;48.050;7.800;2024-02-21T08:30:55;6.73;;;3.13;;
6642;SDS011;3357;48.050;7.800;2024-02-21T08:33:20;8.33;;;2.93;;
6642;SDS011;3357;48.050;7.800;2024-02-21T08:35:49;8.03;;;2.77;;
6642;SDS011;3357;48.050;7.800;2024-02-21T08:38:15;2.73;;;2.10;;
6642;SDS011;3357;48.050;7.800;2024-02-21T08:40:40;4.03;;;2.40;;
6642;SDS011;3357;48.050;7.800;2024-02-21T08:43:05;10.53;;;2.60;;
6642;SDS011;3357;48.050;7.800;2024-02-21T08:45:30;4.20;;;2.33;;
6642;SDS011;3357;48.050;7.800;2024-02-21T08:47:56;10.03;;;3.23;;
6642;SDS011;3357;48.050;7.800;2024-02-21T08:50:21;5.40;;;2.40;;
6642;SDS011;3357;48.050;7.800;2024-02-21T08:52:46;7.37;;;2.73;;
6642;SDS011;3357;48.050;7.800;2024-02-21T08:55:11;15.60;;;2.80;;
6642;SDS011;3357;48.050;7.800;2024-02-21T08:57:37;5.37;;;3.07;;
6642;SDS011;3357;48.050;7.800;2024-02-21T09:00:03;3.43;;;2.70;;
6642;SDS011;3357;48.050;7.800;2024-02-21T09:02:34;4.47;;;3.20;;
6642;SDS011;3357;48.050;7.800;2024-02-21T09:05:00;6.80;;;3.87;;
6642;SDS011;3357;48.050;7.800;2024-02-21T09:07:26;5.00;;;3.53;;
6642;SDS011;3357;48.050;7.800;2024-02-21T09:09:51;5.80;;;3.40;;
6642;SDS011;3357;48.050;7.800;2024-02-21T09:12:16;8.30;;;3.60;;
6642;SDS011;3357;48.050;7.800;2024-02-21T09:14:41;9.90;;;3.40;;
6642;SDS011;3357;48.050;7.800;2024-02-21T09:17:07;6.93;;;2.50;;
6642;SDS011;3357;48.050;7.800;2024-02-21T09:19:33;4.03;;;2.40;;
6642;SDS011;3357;48.050;7.800;2024-02-21T09:21:58;7.70;;;2.80;;
6642;SDS011;3357;48.050;7.800;2024-02-21T09:24:24;5.23;;;2.57;;
6642;SDS011;3357;48.050;7.800;2024-02-21T09:26:49;6.10;;;2.30;;
6642;SDS011;3357;48.050;7.800;2024-02-21T09:29:14;4.73;;;1.90;;
6642;SDS011;3357;48.050;7.800;2024-02-21T09:31:41;6.60;;;2.07;;
6642;SDS011;3357;48.050;7.800;2024-02-21T09:34:07;14.17;;;2.70;;
6642;SDS011;3357;48.050;7.800;2024-02-21T09:36:32;3.53;;;1.90;;
6642;SDS011;3357;48.050;7.800;2024-02-21T09:38:57;7.57;;;2.37;;
6642;SDS011;3357;48.050;7.800;2024-02-21T09:41:26;2.33;;;2.13;;
6642;SDS011;3357;48.050;7.800;2024-02-21T09:43:54;7.43;;;2.20;;
6642;SDS011;3357;48.050;7.800;2024-02-21T09:46:21;5.07;;;1.93;;
6642;SDS011;3357;48.050;7.800;2024-02-21T09:48:58;4.87;;;1.73;;
6642;SDS011;3357;48.050;7.800;2024-02-21T09:51:34;2.30;;;1.53;;
6642;SDS011;3357;48.050;7.800;2024-02-21T09:54:00;9.90;;;1.67;;
6642;SDS011;3357;48.050;7.800;2024-02-21T09:56:25;3.70;;;1.80;;
6642;SDS011;3357;48.050;7.800;2024-02-21T09:58:51;6.03;;;2.10;;
6642;SDS011;3357;48.050;7.800;2024-02-21T10:01:16;5.40;;;2.30;;
6642;SDS011;3357;48.050;7.800;2024-02-21T10:03:41;2.87;;;2.00;;
6642;SDS011;3357;48.050;7.800;2024-02-21T10:06:08;5.33;;;2.10;;
6642;SDS011;3357;48.050;7.800;2024-02-21T10:08:34;2.73;;;1.87;;
6642;SDS011;3357;48.050;7.800;2024-02-21T10:10:59;2.80;;;2.07;;
6642;SDS011;3357;48.050;7.800;2024-02-21T10:13:26;2.23;;;1.73;;
6642;SDS011;3357;48.050;7.800;2024-02-21T10:16:05;6.20;;;1.60;;
6642;SDS011;3357;48.050;7.800;2024-02-21T10:18:31;7.83;;;1.93;;
6642;SDS011;3357;48.050;7.800;2024-02-21T10:21:04;4.53;;;2.17;;
6642;SDS011;3357;48.050;7.800;2024-02-21T10:23:46;7.37;;;2.00;;
6642;SDS011;3357;48.050;7.800;2024-02-21T10:26:13;4.07;;;1.40;;
6642;SDS011;3357;48.050;7.800;2024-02-21T10:28:39;3.97;;;1.20;;
6642;SDS011;3357;48.050;7.800;2024-02-21T10:31:10;7.97;;;2.00;;
6642;SDS011;3357;48.050;7.800;2024-02-21T10:33:36;2.50;;;1.40;;
6642;SDS011;3357;48.050;7.800;2024-02-21T10:36:06;6.60;;;1.80;;
6642;SDS011;3357;48.050;7.800;2024-02-21T10:38:35;5.67;;;1.50;;
6642;SDS011;3357;48.050;7.800;2024-02-21T10:41:02;2.57;;;1.30;;
6642;SDS011;3357;48.050;7.800;2024-02-21T10:43:28;2.20;;;1.40;;
6642;SDS011;3357;48.050;7.800;2024-02-21T10:45:55;1.67;;;1.20;;
6642;SDS011;3357;48.050;7.800;2024-02-21T10:48:26;5.60;;;1.00;;
6642;SDS011;3357;48.050;7.800;2024-02-21T10:53:53;1.50;;;1.00;;
6642;SDS011;3357;48.050;7.800;2024-02-21T10:58:52;1.67;;;1.17;;
6642;SDS011;3357;48.050;7.800;2024-02-21T11:01:18;1.80;;;0.97;;
6642;SDS011;3357;48.050;7.800;2024-02-21T11:03:44;2.27;;;1.00;;
6642;SDS011;3357;48.050;7.800;2024-02-21T11:06:11;3.07;;;1.40;;
6642;SDS011;3357;48.050;7.800;2024-02-21T11:08:37;4.57;;;1.10;;
6642;SDS011;3357;48.050;7.800;2024-02-21T11:11:02;1.10;;;1.00;;
6642;SDS011;3357;48.050;7.800;2024-02-21T11:13:30;3.33;;;0.97;;
6642;SDS011;3357;48.050;7.800;2024-02-21T11:16:09;6.70;;;1.00;;
6642;SDS011;3357;48.050;7.800;2024-02-21T11:18:36;1.73;;;0.90;;
6642;SDS011;3357;48.050;7.800;2024-02-21T11:21:04;4.90;;;1.00;;
6642;SDS011;3357;48.050;7.800;2024-02-21T11:23:30;4.80;;;0.80;;
6642;SDS011;3357;48.050;7.800;2024-02-21T11:26:08;5.50;;;1.03;;
6642;SDS011;3357;48.050;7.800;2024-02-21T11:28:34;3.80;;;1.00;;
6642;SDS011;3357;48.050;7.800;2024-02-21T11:31:11;3.20;;;1.00;;
6642;SDS011;3357;48.050;7.800;2024-02-21T11:33:40;2.00;;;0.90;;
6642;SDS011;3357;48.050;7.800;2024-02-21T11:36:09;1.77;;;1.17;;
6642;SDS011;3357;48.050;7.800;2024-02-21T11:38:34;2.73;;;0.80;;
6642;SDS011;3357;48.050;7.800;2024-02-21T11:41:00;6.50;;;1.30;;
6642;SDS011;3357;48.050;7.800;2024-02-21T11:43:25;2.77;;;1.00;;
6642;SDS011;3357;48.050;7.800;2024-02-21T11:45:57;3.40;;;0.97;;
6642;SDS011;3357;48.050;7.800;2024-02-21T11:48:24;1.97;;;1.10;;
6642;SDS011;3357;48.050;7.800;2024-02-21T11:50:56;1.10;;;1.10;;
6642;SDS011;3357;48.050;7.800;2024-02-21T11:53:21;4.50;;;1.27;;
6642;SDS011;3357;48.050;7.800;2024-02-21T11:55:47;2.17;;;1.00;;
6642;SDS011;3357;48.050;7.800;2024-02-21T11:58:12;1.67;;;1.20;;
6642;SDS011;3357;48.050;7.800;2024-02-21T12:00:37;2.70;;;0.90;;
6642;SDS011;3357;48.050;7.800;2024-02-21T12:03:03;6.90;;;1.13;;
6642;SDS011;3357;48.050;7.800;2024-02-21T12:05:29;2.77;;;0.80;;
6642;SDS011;3357;48.050;7.800;2024-02-21T12:07:55;4.07;;;0.90;;
6642;SDS011;3357;48.050;7.800;2024-02-21T12:10:20;4.20;;;1.00;;
6642;SDS011;3357;48.050;7.800;2024-02-21T12:12:45;1.30;;;0.80;;
6642;SDS011;3357;48.050;7.800;2024-02-21T12:15:11;1.70;;;0.70;;
6642;SDS011;3357;48.050;7.800;2024-02-21T12:17:36;1.33;;;0.73;;
6642;SDS011;3357;48.050;7.800;2024-02-21T12:20:02;2.00;;;0.50;;
6642;SDS011;3357;48.050;7.800;2024-02-21T12:22:43;0.93;;;0.53;;
6642;SDS011;3357;48.050;7.800;2024-02-21T12:25:18;1.23;;;0.50;;
6642;SDS011;3357;48.050;7.800;2024-02-21T12:27:44;2.20;;;0.70;;
6642;SDS011;3357;48.050;7.800;2024-02-21T12:30:10;0.67;;;0.50;;
6642;SDS011;3357;48.050;7.800;2024-02-21T12:32:36;0.60;;;0.60;;
6642;SDS011;3357;48.050;7.800;2024-02-21T12:35:01;0.50;;;0.50;;
6642;SDS011;3357;48.050;7.800;2024-02-21T12:37:27;0.80;;;0.43;;
6642;SDS011;3357;48.050;7.800;2024-02-21T12:39:52;0.60;;;0.50;;
6642;SDS011;3357;48.050;7.800;2024-02-21T12:42:18;0.63;;;0.63;;
6642;SDS011;3357;48.050;7.800;2024-02-21T12:44:43;0.50;;;0.50;;
6642;SDS011;3357;48.050;7.800;2024-02-21T12:47:08;0.50;;;0.50;;
6642;SDS011;3357;48.050;7.800;2024-02-21T12:49:33;0.50;;;0.50;;
6642;SDS011;3357;48.050;7.800;2024-02-21T12:51:59;0.70;;;0.60;;
6642;SDS011;3357;48.050;7.800;2024-02-21T12:54:24;1.60;;;0.50;;
6642;SDS011;3357;48.050;7.800;2024-02-21T12:56:51;1.20;;;0.53;;
6642;SDS011;3357;48.050;7.800;2024-02-21T12:59:16;2.40;;;0.50;;
6642;SDS011;3357;48.050;7.800;2024-02-21T13:01:41;0.70;;;0.70;;
6642;SDS011;3357;48.050;7.800;2024-02-21T13:04:07;0.83;;;0.53;;
6642;SDS011;3357;48.050;7.800;2024-02-21T13:06:32;1.03;;;0.50;;
6642;SDS011;3357;48.050;7.800;2024-02-21T13:08:57;1.63;;;0.60;;
6642;SDS011;3357;48.050;7.800;2024-02-21T13:11:24;2.33;;;0.60;;
6642;SDS011;3357;48.050;7.800;2024-02-21T13:13:51;0.60;;;0.60;;
6642;SDS011;3357;48.050;7.800;2024-02-21T13:16:17;0.50;;;0.50;;
6642;SDS011;3357;48.050;7.800;2024-02-21T13:18:43;0.60;;;0.60;;
6642;SDS011;3357;48.050;7.800;2024-02-21T13:21:08;0.60;;;0.60;;
6642;SDS011;3357;48.050;7.800;2024-02-21T13:23:33;0.50;;;0.47;;
6642;SDS011;3357;48.050;7.800;2024-02-21T13:25:59;1.23;;;0.50;;
6642;SDS011;3357;48.050;7.800;2024-02-21T13:28:24;0.63;;;0.50;;
6642;SDS011;3357;48.050;7.800;2024-02-21T13:30:49;2.67;;;0.70;;
6642;SDS011;3357;48.050;7.800;2024-02-21T13:33:15;0.50;;;0.50;;
6642;SDS011;3357;48.050;7.800;2024-02-21T13:35:40;0.50;;;0.50;;
6642;SDS011;3357;48.050;7.800;2024-02-21T13:38:06;0.50;;;0.50;;
6642;SDS011;3357;48.050;7.800;2024-02-21T13:40:31;0.97;;;0.40;;
6642;SDS011;3357;48.050;7.800;2024-02-21T13:42:56;3.27;;;0.77;;
6642;SDS011;3357;48.050;7.800;2024-02-21T13:45:21;0.60;;;0.60;;
6642;SDS011;3357;48.050;7.800;2024-02-21T13:47:47;1.00;;;0.70;;
6642;SDS011;3357;48.050;7.800;2024-02-21T13:50:13;1.30;;;0.70;;
6642;SDS011;3357;48.050;7.800;2024-02-21T13:52:39;0.67;;;0.67;;
6642;SDS011;3357;48.050;7.800;2024-02-21T13:55:04;0.63;;;0.63;;
6642;SDS011;3357;48.050;7.800;2024-02-21T13:57:33;1.03;;;0.73;;
6642;SDS011;3357;48.050;7.800;2024-02-21T13:59:58;1.00;;;0.80;;
6642;SDS011;3357;48.050;7.800;2024-02-21T14:02:24;3.50;;;0.80;;
6642;SDS011;3357;48.050;7.800;2024-02-21T14:04:49;1.03;;;0.70;;
6642;SDS011;3357;48.050;7.800;2024-02-21T14:07:15;1.03;;;0.70;;
6642;SDS011;3357;48.050;7.800;2024-02-21T14:09:42;1.10;;;0.80;;
6642;SDS011;3357;48.050;7.800;2024-02-21T14:12:07;2.37;;;0.73;;
6642;SDS011;3357;48.050;7.800;2024-02-21T14:14:35;1.87;;;0.90;;
6642;SDS011;3357;48.050;7.800;2024-02-21T14:17:01;3.57;;;1.10;;
6642;SDS011;3357;48.050;7.800;2024-02-21T14:19:28;0.90;;;0.70;;
6642;SDS011;3357;48.050;7.800;2024-02-21T14:21:53;3.17;;;0.93;;
6642;SDS011;3357;48.050;7.800;2024-02-21T14:24:19;1.77;;;1.00;;
6642;SDS011;3357;48.050;7.800;2024-02-21T14:26:44;1.07;;;1.00;;
6642;SDS011;3357;48.050;7.800;2024-02-21T14:29:09;1.63;;;0.90;;
6642;SDS011;3357;48.050;7.800;2024-02-21T14:31:35;2.70;;;0.80;;
6642;SDS011;3357;48.050;7.800;2024-02-21T14:34:00;1.00;;;0.90;;
6642;SDS011;3357;48.050;7.800;2024-02-21T14:36:27;2.33;;;1.07;;
6642;SDS011;3357;48.050;7.800;2024-02-21T14:38:52;2.80;;;1.10;;
6642;SDS011;3357;48.050;7.800;2024-02-21T14:41:18;1.83;;;0.90;;
6642;SDS011;3357;48.050;7.800;2024-02-21T14:43:43;2.27;;;0.83;;
6642;SDS011;3357;48.050;7.800;2024-02-21T14:46:09;3.40;;;0.80;;
6642;SDS011;3357;48.050;7.800;2024-02-21T14:48:34;2.73;;;0.80;;
6642;SDS011;3357;48.050;7.800;2024-02-21T14:50:59;2.80;;;1.00;;
6642;SDS011;3357;48.050;7.800;2024-02-21T14:53:25;1.53;;;1.20;;
6642;SDS011;3357;48.050;7.800;2024-02-21T14:55:50;2.03;;;0.90;;
6642;SDS011;3357;48.050;7.800;2024-02-21T14:58:16;8.63;;;1.10;;
6642;SDS011;3357;48.050;7.800;2024-02-21T15:00:44;1.83;;;0.97;;
6642;SDS011;3357;48.050;7.800;2024-02-21T15:03:09;1.47;;;0.90;;
6642;SDS011;3357;48.050;7.800;2024-02-21T15:05:35;0.70;;;0.70;;
6642;SDS011;3357;48.050;7.800;2024-02-21T15:08:01;4.73;;;0.90;;
6642;SDS011;3357;48.050;7.800;2024-02-21T15:10:27;2.67;;;0.73;;
6642;SDS011;3357;48.050;7.800;2024-02-21T15:12:52;0.73;;;0.73;;